Latest Weather Observations for Launceston Airport

IDT60801

Issued at 5:35 pm EST Wednesday 17 September 2014 (issued every 30 minutes, with the page automatically refreshed every 10 minutes)

About weather observations | Map of weather stations | Latest weather observations for TAS | Other Formats
Station Details ID: 091311 Name: LAUNCESTON AIRPORT Lat: -41.55 Lon: 147.21 Height: 166.9 m
Data from the previous 72 hours. | See also: Recent months at Launceston Airport
Date/Time
EST
Temp
°C
App
Temp
°C
Dew
Point
Rel
Hum
%
Delta-T
°C
Wind Press
QNH
hPa
Press
MSL
hPa
Rain
since 9 am
mm
Dir
 
Spd
km/h
Gust
km/h
Spd
kts
Gust
kts
17/05:30pm 8.6 2.3 -0.7 52 3.7 SSW 22 32 12 17 1006.4 1006.5 0.0
17/05:00pm 9.1 2.9 -0.5 51 3.8 S 22 26 12 14 1005.5 1005.7 0.0
17/04:30pm 9.7 3.6 0.1 51 3.9 SSW 22 32 12 17 1004.6 1004.8 0.0
17/04:00pm 10.4 2.1 -1.9 42 4.8 SW 32 41 17 22 1003.9 1004.1 0.0
17/03:30pm 11.4 5.6 -0.4 44 4.8 SW 20 32 11 17 1003.5 1003.7 0.0
17/03:00pm 10.8 3.5 0.0 47 4.4 SW 28 41 15 22 1003.0 1003.2 0.0
17/02:30pm 11.0 4.3 -0.8 44 4.7 WSW 24 32 13 17 1002.7 1002.9 0.0
17/02:00pm 12.0 6.0 0.8 46 4.7 SW 22 30 12 16 1002.7 1002.9 0.0
17/01:30pm 9.2 3.1 0.6 55 3.5 SW 22 28 12 15 1002.5 1002.7 0.0
17/01:00pm 10.0 5.0 1.6 56 3.6 SSW 17 24 9 13 1002.5 1002.7 0.0
17/12:30pm 10.5 5.0 4.0 64 2.9 WNW 22 33 12 18 1002.6 1002.8 0.0
17/12:00pm 10.0 4.2 4.2 67 2.6 NW 24 32 13 17 1003.1 1003.3 0.0
17/11:30am 10.3 4.2 4.9 69 2.5 NW 26 33 14 18 1003.4 1003.6 0.0
17/11:00am 11.0 6.4 5.5 69 2.6 WNW 19 24 10 13 1003.6 1003.8 0.0
17/10:30am 10.5 5.2 6.6 77 1.8 NNW 24 32 13 17 1003.8 1004.0 0.0
17/10:20am 10.4 5.8 6.5 77 1.8 NNW 20 32 11 17 1004.0 1004.2 0.0
17/10:00am 10.5 5.7 7.4 81 1.5 N 22 28 12 15 1004.4 1004.6 0.0
17/09:32am 9.9 4.5 7.8 87 1.0 N 26 35 14 19 1004.8 1005.0 0.0
17/09:30am 9.6 3.7 7.5 87 1.0 N 28 35 15 19 1004.8 1005.0 0.0
17/09:00am 8.9 4.0 8.6 98 0.1 NNW 24 32 13 17 1005.2 1005.4 15.6
17/08:30am 7.5 3.6 7.2 98 0.1 NNW 17 20 9 11 1005.3 1005.5 15.6
17/08:29am 7.5 3.6 7.2 98 0.1 NNW 17 20 9 11 1005.3 1005.5 15.6
17/08:26am 7.2 3.3 6.9 98 0.1 NNW 17 20 9 11 1005.3 1005.5 15.6
17/08:16am 7.5 3.6 7.2 98 0.1 NNW 17 20 9 11 1005.5 1005.7 15.6
17/08:00am 7.6 5.3 7.3 98 0.1 N 9 15 5 8 1005.7 1005.8 15.6
17/07:40am 6.0 2.9 5.7 98 0.1 N 11 17 6 9 1005.7 1005.8 15.6
17/07:36am 6.1 2.7 5.8 98 0.1 NNW 13 17 7 9 1005.7 1005.8 15.6
17/07:30am 6.0 2.6 5.7 98 0.1 NNW 13 17 7 9 1005.8 1005.9 15.6
17/07:00am 5.1 2.2 4.8 98 0.1 N 9 11 5 6 1006.0 1006.1 15.6
17/06:39am 4.8 1.5 4.5 98 0.1 N 11 13 6 7 1006.2 1006.3 15.6
17/06:38am 4.8 1.5 4.5 98 0.1 N 11 11 6 6 1006.2 1006.3 15.6
17/06:36am 4.7 1.4 4.4 98 0.1 N 11 11 6 6 1006.2 1006.3 15.6
17/06:30am 4.6 1.3 4.3 98 0.1 N 11 13 6 7 1006.3 1006.4 15.6
17/06:20am 4.5 1.1 4.2 98 0.1 N 11 13 6 7 1006.4 1006.5 15.6
17/06:16am 4.5 1.1 4.2 98 0.1 N 11 13 6 7 1006.4 1006.5 15.6
17/06:13am 4.5 1.1 4.2 98 0.1 N 11 13 6 7 1006.4 1006.5 15.6
17/06:12am 4.5 1.1 4.2 98 0.1 N 11 13 6 7 1006.4 1006.5 15.6
17/06:11am 4.4 1.0 4.1 98 0.1 N 11 13 6 7 1006.4 1006.5 15.6
17/06:09am 4.4 1.0 4.1 98 0.1 N 11 13 6 7 1006.5 1006.6 15.6
17/06:00am 4.2 1.2 3.9 98 0.1 N 9 13 5 7 1006.7 1006.9 15.6
17/05:42am 4.9 1.2 4.6 98 0.1 NNW 13 15 7 8 1006.7 1006.9 15.6
17/05:30am 4.9 1.2 4.6 98 0.1 NNW 13 15 7 8 1006.7 1006.9 15.6
17/05:27am 4.8 1.1 4.5 98 0.1 NNW 13 17 7 9 1006.7 1006.9 15.6
17/05:20am 4.7 1.0 4.4 98 0.1 NNW 13 17 7 9 1006.7 1006.9 15.6
17/05:10am 4.4 1.8 4.1 98 0.1 N 7 9 4 5 1006.7 1006.9 15.6
17/05:06am 4.2 1.2 3.9 98 0.1 N 9 11 5 6 1006.7 1006.9 15.6
17/05:00am 4.3 1.3 4.0 98 0.1 N 9 11 5 6 1006.8 1007.0 15.6
17/04:59am 4.3 1.3 4.0 98 0.1 N 9 11 5 6 1006.8 1007.0 15.6
17/04:34am 3.9 0.8 3.6 98 0.1 N 9 11 5 6 1006.9 1007.1 15.6
17/04:32am 3.9 0.8 3.6 98 0.1 N 9 11 5 6 1006.9 1007.1 15.6
17/04:31am 3.9 0.8 3.6 98 0.1 N 9 11 5 6 1006.9 1007.1 15.6
17/04:30am 3.9 0.8 3.6 98 0.1 N 9 11 5 6 1006.9 1007.1 15.6
17/04:23am 3.8 1.1 3.5 98 0.1 N 7 9 4 5 1007.1 1007.3 15.6
17/04:01am 3.8 1.3 3.5 98 0.1 N 6 9 3 5 1007.3 1007.5 15.4
17/04:00am 3.8 1.6 3.5 98 0.1 N 4 9 2 5 1007.3 1007.5 15.4
17/03:55am 3.7 1.9 3.4 98 0.1 N 2 9 1 5 1007.3 1007.5 15.4
17/03:49am 3.8 1.6 3.5 98 0.1 N 4 9 2 5 1007.3 1007.5 15.4
17/03:46am 3.8 2.0 3.5 98 0.1 N 2 9 1 5 1007.4 1007.6 15.4
17/03:30am 3.5 2.0 3.2 98 0.1 CALM 0 0 0 0 1007.5 1007.7 15.4
17/03:05am 2.8 1.2 2.5 98 0.1 CALM 0 0 0 0 1007.7 1007.9 15.4
17/03:03am 2.6 1.0 2.3 98 0.1 CALM 0 0 0 0 1007.7 1007.9 15.4
17/03:00am 2.5 0.8 2.1 97 0.2 CALM 0 0 0 0 1007.7 1007.9 15.4
17/02:56am 2.4 0.7 2.0 97 0.2 CALM 0 0 0 0 1007.8 1008.0 15.4
17/02:38am 4.1 2.7 3.7 97 0.2 CALM 0 0 0 0 1007.7 1007.9 15.4
17/02:30am 4.4 3.1 4.0 97 0.2 CALM 0 0 0 0 1007.7 1007.9 15.4
17/02:26am 4.4 3.1 4.0 97 0.2 CALM 0 0 0 0 1007.7 1007.9 15.4
17/02:10am 3.6 2.1 3.2 97 0.2 CALM 0 4 0 2 1007.8 1008.0 15.4
17/02:00am 4.4 1.8 4.0 97 0.2 WNW 7 9 4 5 1007.9 1008.1 15.4
17/01:30am 3.1 0.4 2.8 98 0.1 NNW 6 7 3 4 1008.3 1008.5 15.4
17/01:00am 3.0 0.3 2.6 97 0.2 NNW 6 7 3 4 1008.7 1008.9 15.4
17/12:46am 2.5 -0.9 2.1 97 0.2 NNW 9 11 5 6 1008.8 1009.0 15.4
17/12:30am 3.0 1.4 2.6 97 0.2 CALM 0 0 0 0 1008.9 1009.1 15.4
17/12:00am 4.3 3.0 3.9 97 0.2 SW 0 0 0 0 1008.9 1009.1 15.4
 
Date/Time
EST
Temp
°C
App
Temp
°C
Dew
Point
Rel
Hum
%
Delta-T
°C
Wind Press
QNH
hPa
Press
MSL
hPa
Rain
since 9 am
mm
Dir
 
Spd
km/h
Gust
km/h
Spd
kts
Gust
kts
16/11:30pm 4.6 3.3 4.2 97 0.2 CALM 0 0 0 0 1008.8 1009.0 15.4
16/11:04pm 4.7 3.4 4.3 97 0.2 CALM 0 0 0 0 1009.1 1009.3 15.4
16/11:00pm 4.9 3.7 4.5 97 0.2 CALM 0 0 0 0 1009.1 1009.3 15.4
16/10:57pm 5.1 3.9 4.7 97 0.2 CALM 0 0 0 0 1009.1 1009.3 15.4
16/10:30pm 5.0 3.8 4.4 96 0.3 CALM 0 0 0 0 1009.3 1009.5 15.4
16/10:01pm 4.6 3.3 4.0 96 0.3 CALM 0 0 0 0 1009.6 1009.8 15.4
16/10:00pm 4.5 3.2 3.9 96 0.3 CALM 0 0 0 0 1009.6 1009.8 15.4
16/09:37pm 5.1 3.9 4.5 96 0.3 CALM 0 0 0 0 1009.6 1009.8 15.4
16/09:31pm 5.2 4.0 4.6 96 0.3 CALM 0 0 0 0 1009.6 1009.8 15.4
16/09:30pm 5.2 4.0 4.6 96 0.3 CALM 0 0 0 0 1009.6 1009.8 15.4
16/09:11pm 5.4 4.2 4.7 95 0.3 CALM 0 0 0 0 1009.6 1009.8 15.4
16/09:00pm 5.8 4.7 5.1 95 0.3 CALM 0 0 0 0 1009.7 1009.9 15.4
16/08:54pm 5.9 4.8 5.0 94 0.4 CALM 0 0 0 0 1009.7 1009.9 15.4
16/08:45pm 6.3 5.3 5.6 95 0.3 CALM 0 0 0 0 1009.8 1010.0 15.4
16/08:42pm 6.6 5.7 5.9 95 0.3 CALM 0 0 0 0 1009.8 1010.0 15.4
16/08:41pm 6.7 5.8 6.0 95 0.3 CALM 0 0 0 0 1009.8 1010.0 15.4
16/08:30pm 6.6 5.7 5.9 95 0.3 CALM 0 0 0 0 1009.9 1010.1 15.4
16/08:21pm 5.9 4.8 4.9 93 0.4 CALM 0 0 0 0 1009.9 1010.1 15.4
16/08:00pm 7.1 5.8 6.2 94 0.4 W 2 7 1 4 1009.9 1010.1 15.4
16/07:30pm 7.4 5.3 6.5 94 0.4 SW 7 9 4 5 1009.9 1010.1 15.4
16/07:00pm 7.7 4.9 7.0 95 0.3 WSW 11 15 6 8 1009.8 1010.0 15.4
16/06:30pm 7.8 4.6 6.9 94 0.4 SW 13 17 7 9 1009.7 1009.9 15.4
16/06:00pm 7.7 6.9 6.6 93 0.5 W 0 0 0 0 1009.7 1009.9 15.4
16/05:30pm 7.4 6.7 6.8 96 0.3 CALM 0 0 0 0 1009.7 1009.9 15.4
16/05:00pm 7.6 5.8 7.0 96 0.3 NE 6 7 3 4 1009.8 1010.0 15.4
16/04:45pm 7.6 4.8 7.0 96 0.3 NE 11 15 6 8 1009.7 1009.9 15.0
16/04:30pm 7.5 4.7 6.9 96 0.3 NNE 11 13 6 7 1009.9 1010.1 14.4
16/04:00pm 7.5 5.0 6.6 94 0.4 N 9 11 5 6 1010.2 1010.4 11.4
16/03:30pm 7.9 6.0 6.7 92 0.6 W 6 7 3 4 1010.3 1010.5 7.8
16/03:11pm 7.9 5.0 6.5 91 0.6 WSW 11 15 6 8 1010.4 1010.6 5.4
16/03:00pm 7.9 4.6 6.5 91 0.6 W 13 15 7 8 1010.4 1010.6 4.4
16/02:30pm 8.5 4.9 6.6 88 0.9 WSW 15 19 8 10 1010.3 1010.5 2.4
16/02:00pm 9.1 5.0 6.2 82 1.3 WSW 17 20 9 11 1010.1 1010.3 0.6
16/01:30pm 10.4 7.1 6.5 77 1.8 SSW 13 17 7 9 1009.9 1010.1 0.2
16/01:00pm 10.9 7.6 4.8 66 2.8 S 11 13 6 7 1010.1 1010.3 0.0
16/12:30pm 11.4 8.2 5.1 65 2.9 S 11 15 6 8 1010.4 1010.6 0.0
16/12:00pm 11.3 7.8 5.6 68 2.7 S 13 17 7 9 1010.9 1011.1 0.0
16/11:30am 11.0 7.8 4.9 66 2.8 S 11 17 6 9 1011.5 1011.8 0.0
16/11:00am 11.0 7.5 5.3 68 2.6 S 13 17 7 9 1012.0 1012.2 0.0
16/10:30am 9.9 6.3 5.1 72 2.2 S 13 17 7 9 1012.5 1012.7 0.0
16/10:00am 9.9 6.7 7.0 82 1.4 S 13 15 7 8 1012.9 1013.1 0.0
16/09:30am 8.6 5.5 5.5 81 1.4 S 11 13 6 7 1013.2 1013.4 0.0
16/09:00am 8.3 5.9 5.1 80 1.4 S 7 13 4 7 1013.5 1013.7 0.0
16/08:30am 7.9 5.0 4.7 80 1.4 S 9 13 5 7 1013.6 1013.8 0.0
16/08:00am 7.2 4.3 4.7 84 1.1 S 9 9 5 5 1013.7 1013.9 0.0
16/07:30am 6.5 4.0 4.5 87 0.9 S 7 9 4 5 1013.7 1013.9 0.0
16/07:00am 6.2 3.2 4.0 86 0.9 S 9 11 5 6 1013.7 1013.9 0.0
16/06:30am 6.1 4.7 3.8 85 1.0 CALM 0 0 0 0 1013.7 1013.9 0.0
16/06:00am 5.9 4.5 3.7 86 0.9 CALM 0 0 0 0 1013.6 1013.8 0.0
16/05:30am 5.9 4.5 3.7 86 0.9 CALM 0 0 0 0 1013.6 1013.8 0.0
16/05:00am 5.9 4.5 3.7 86 0.9 CALM 0 0 0 0 1013.6 1013.8 0.0
16/04:30am 6.0 4.6 3.7 85 1.0 CALM 0 0 0 0 1013.5 1013.7 0.0
16/04:00am 6.0 3.3 3.7 85 1.0 S 7 9 4 5 1013.5 1013.7 0.0
16/03:30am 6.0 4.6 3.7 85 1.0 CALM 0 0 0 0 1013.5 1013.7 0.0
16/03:00am 6.6 4.1 3.8 82 1.2 S 6 7 3 4 1013.6 1013.8 0.0
16/02:30am 6.7 5.3 3.7 81 1.3 CALM 0 0 0 0 1013.9 1014.1 0.0
16/02:00am 7.1 4.6 3.7 79 1.5 W 6 7 3 4 1014.2 1014.4 0.0
16/01:30am 7.0 5.6 3.6 79 1.5 CALM 0 0 0 0 1014.5 1014.7 0.0
16/01:00am 6.4 4.5 2.9 78 1.5 WNW 2 6 1 3 1014.9 1015.1 0.0
16/12:36am 7.0 4.5 3.6 79 1.5 W 6 7 3 4 1015.0 1015.2 0.0
16/12:30am 7.1 4.4 3.7 79 1.5 WNW 7 7 4 4 1015.0 1015.2 0.0
16/12:09am 6.4 3.2 2.9 78 1.5 N 9 9 5 5 1015.0 1015.2 0.0
16/12:00am 6.0 2.7 2.6 79 1.4 N 9 9 5 5 1015.1 1015.3 0.0
 
Date/Time
EST
Temp
°C
App
Temp
°C
Dew
Point
Rel
Hum
%
Delta-T
°C
Wind Press
QNH
hPa
Press
MSL
hPa
Rain
since 9 am
mm
Dir
 
Spd
km/h
Gust
km/h
Spd
kts
Gust
kts
15/11:30pm 6.7 3.8 2.6 75 1.7 NNW 7 9 4 5 1015.4 1015.6 0.0
15/11:00pm 8.0 5.4 3.1 71 2.1 ENE 6 9 3 5 1015.8 1016.0 0.0
15/10:30pm 8.4 5.6 3.3 70 2.2 ENE 7 11 4 6 1015.8 1016.0 0.0
15/10:02pm 8.3 4.9 3.9 74 1.9 N 11 13 6 7 1016.1 1016.3 0.0
15/10:00pm 8.4 5.0 4.2 75 1.8 N 11 13 6 7 1016.0 1016.2 0.0
15/09:30pm 8.6 5.3 4.6 76 1.8 NNW 11 13 6 7 1016.2 1016.4 0.0
15/09:13pm 9.2 5.9 4.4 72 2.1 NW 11 15 6 8 1016.2 1016.4 0.0
15/09:08pm 9.3 5.6 4.5 72 2.1 NW 13 15 7 8 1016.2 1016.4 0.0
15/09:00pm 9.3 5.6 4.7 73 2.1 NW 13 15 7 8 1016.2 1016.4 0.0
15/08:31pm 8.9 5.6 4.7 75 1.9 NW 11 15 6 8 1016.3 1016.5 0.0
15/08:30pm 9.0 5.7 4.8 75 1.9 NW 11 15 6 8 1016.3 1016.5 0.0
15/08:19pm 8.9 5.2 4.7 75 1.9 NW 13 15 7 8 1016.3 1016.5 0.0
15/08:09pm 8.9 5.2 4.5 74 2.0 NW 13 15 7 8 1016.3 1016.5 0.0
15/08:00pm 9.4 5.8 4.8 73 2.1 NW 13 17 7 9 1016.3 1016.5 0.0
15/07:45pm 9.5 6.3 4.9 73 2.1 WNW 11 15 6 8 1016.3 1016.5 0.0
15/07:30pm 9.3 6.1 4.9 74 2.0 NW 11 13 6 7 1016.2 1016.4 0.0
15/07:00pm 9.1 6.1 4.3 72 2.1 NW 9 11 5 6 1015.9 1016.1 0.0
15/06:59pm 9.2 6.3 4.4 72 2.1 NW 9 11 5 6 1015.9 1016.1 0.0
15/06:30pm 10.1 6.4 4.5 68 2.5 NW 13 17 7 9 1015.8 1016.0 0.0
15/06:28pm 10.0 6.3 4.6 69 2.4 NW 13 17 7 9 1015.8 1016.0 0.0
15/06:00pm 9.7 5.3 4.7 71 2.3 NNW 17 20 9 11 1015.6 1015.8 0.0
15/05:30pm 10.5 6.4 4.4 66 2.8 NNW 15 19 8 10 1015.3 1015.5 0.0
15/05:00pm 11.4 8.4 3.9 60 3.4 NNW 9 13 5 7 1015.1 1015.3 0.0
15/04:54pm 11.8 9.4 4.1 59 3.5 WNW 6 11 3 6 1015.2 1015.4 0.0
15/04:30pm 12.4 10.2 3.6 55 4.0 SE 4 7 2 4 1015.0 1015.2 0.0
15/04:00pm 13.1 9.4 2.6 49 4.7 SE 11 15 6 8 1015.1 1015.3 0.0
15/03:30pm 13.6 10.4 3.1 49 4.7 SE 9 15 5 8 1015.0 1015.2 0.0
15/03:00pm 13.4 10.5 2.6 48 4.8 SE 7 15 4 8 1015.3 1015.5 0.0
15/02:30pm 13.8 10.7 3.6 50 4.6 SW 9 15 5 8 1015.6 1015.8 0.0
15/02:00pm 13.1 9.8 2.4 48 4.7 S 9 17 5 9 1015.8 1016.0 0.0
15/01:30pm 12.6 8.4 1.9 48 4.6 S 13 20 7 11 1016.2 1016.4 0.0
15/01:00pm 12.7 9.6 1.4 46 4.9 WSW 7 15 4 8 1016.6 1016.9 0.0
15/12:30pm 12.8 9.6 2.9 51 4.4 SSW 9 15 5 8 1016.8 1017.1 0.0
15/12:00pm 11.9 9.1 1.8 50 4.3 S 6 13 3 7 1017.2 1017.5 0.0
15/11:30am 11.6 7.6 0.7 47 4.6 SSE 11 15 6 8 1017.5 1017.8 0.0
15/11:00am 10.7 6.3 0.2 48 4.3 S 13 19 7 10 1017.9 1018.2 0.0
15/10:30am 10.8 6.6 1.4 52 4.0 SSE 13 20 7 11 1018.6 1018.8 0.0
15/10:00am 10.3 5.4 1.9 56 3.6 SE 17 24 9 13 1018.8 1019.0 0.0
15/09:30am 9.2 4.3 2.1 61 3.0 SSE 17 20 9 11 1019.1 1019.3 0.0
15/09:00am 8.1 4.0 2.1 66 2.5 SSE 13 19 7 10 1019.3 1019.5 0.0
15/08:30am 6.6 2.5 0.1 63 2.5 S 11 15 6 8 1019.4 1019.6 0.0
15/08:00am 5.3 0.9 0.3 70 1.9 S 13 15 7 8 1019.2 1019.4 0.0
15/07:30am 3.5 -1.0 -0.5 75 1.5 S 13 17 7 9 1019.1 1019.3 0.0
15/07:00am 1.9 -2.7 -1.3 79 1.1 S 13 17 7 9 1018.9 1019.1 0.0
15/06:30am 0.9 -3.8 -2.0 81 1.1 S 13 15 7 8 1018.6 1018.8 0.0
15/06:00am 0.8 -3.9 -1.9 82 1.0 S 13 15 7 8 1018.4 1018.6 0.0
15/05:30am 0.6 -4.1 -2.1 82 1.0 S 13 17 7 9 1018.5 1018.7 0.0
15/05:00am 0.9 -4.2 -2.0 81 1.1 S 15 17 8 9 1018.4 1018.6 0.0
15/04:30am 1.3 -3.8 -1.9 79 1.1 SSE 15 17 8 9 1018.4 1018.6 0.0
15/04:00am 1.5 -3.6 -1.6 80 1.1 S 15 17 8 9 1018.5 1018.7 0.0
15/03:30am 1.8 -3.6 -1.4 79 1.1 S 17 19 9 10 1018.5 1018.7 0.0
15/03:00am 1.5 -3.5 -1.4 81 1.0 S 15 17 8 9 1018.5 1018.7 0.0
15/02:30am 2.2 -2.8 -1.2 78 1.2 S 15 17 8 9 1018.6 1018.8 0.0
15/02:00am 2.5 -2.5 -1.3 76 1.4 S 15 17 8 9 1018.7 1018.9 0.0
15/01:30am 3.2 -1.4 -1.3 72 1.6 S 13 15 7 8 1019.0 1019.2 0.0
15/01:00am 3.4 -1.2 -1.2 72 1.7 S 13 13 7 7 1019.1 1019.3 0.0
15/12:30am 3.2 -1.1 -1.5 71 1.7 SSE 11 13 6 7 1019.1 1019.3 0.0
15/12:00am 3.8 -0.1 -1.2 70 1.8 S 9 11 5 6 1019.2 1019.4 0.0
 
Date/Time
EST
Temp
°C
App
Temp
°C
Dew
Point
Rel
Hum
%
Delta-T
°C
Wind Press
QNH
hPa
Press
MSL
hPa
Rain
since 9 am
mm
Dir
 
Spd
km/h
Gust
km/h
Spd
kts
Gust
kts
14/11:30pm 3.9 0.5 -0.9 71 1.8 SE 7 13 4 7 1019.1 1019.3 0.0
14/11:00pm 4.2 0.3 -1.2 68 2.0 SSE 9 13 5 7 1019.2 1019.4 0.0
14/10:30pm 5.0 0.1 -0.6 67 2.1 SSE 15 19 8 10 1019.1 1019.3 0.0
14/10:00pm 5.5 0.6 -0.3 66 2.2 SSE 15 20 8 11 1019.1 1019.3 0.0
14/09:30pm 6.0 1.0 -0.9 61 2.6 SE 15 20 8 11 1019.1 1019.3 0.0
14/09:00pm 7.5 1.6 -0.9 55 3.2 SE 20 28 11 15 1018.5 1018.7 0.0
14/08:30pm 6.7 1.3 -1.2 57 3.0 SSE 17 22 9 12 1018.2 1018.4 0.0
14/08:00pm 8.1 2.7 -1.4 51 3.6 S 17 24 9 13 1017.6 1017.9 0.0
14/07:30pm 7.1 2.0 -2.1 52 3.4 SSE 15 20 8 11 1017.5 1017.8 0.0
14/07:00pm 9.1 3.8 -3.4 41 4.6 SSW 15 20 8 11 1017.1 1017.4 0.0
14/06:30pm 10.2 4.6 -2.8 40 4.9 SSW 17 22 9 12 1016.7 1017.0 0.0
14/06:00pm 10.2 5.9 -1.8 43 4.7 S 11 15 6 8 1016.4 1016.6 0.0

Other Formats:

Comma delimited format used in spreadsheet applications
http://www.bom.gov.au/fwo/IDT60801/IDT60801.95966.axf

JavaScript Object Notation format (JSON) in row-major order
http://www.bom.gov.au/fwo/IDT60801/IDT60801.95966.json